AKL weather

Auckland International Airport
Auckland, Auckland Region, New Zealand

Public forecast

Using degrees Celsius for public forecast. Weather courtesy of forecast.io.

Current aviation weather report (METAR) for Auckland International Airport

Retrieved 2020/08/03 18:00 UTC (16 minutes ago):

NZAA 031800Z AUTO 16005KT 9999 NCD 08/08 Q1017 TEMPO FM1700 2000 BR

Aviation forecast (TAF) for Auckland International Airport

Retrieved 2020/08/03 18:39 UTC (0 seconds ago):

TAF NZAA 031736Z 0318/0418 16005KT 9999 FEW030 TEMPO 0318/0321 2000 BR PROB30 0402/0405 22010KT TEMPO 0414/0418 2000 BR PROB30 0416/0418 0500 FG